Time;durP1;ratioP1;P1;durP2;ratioP2;P2;SDS_P1;SDS_P2;PMS_P1;PMS_P2;Temp;Humidity;BMP_temperature;BMP_pressure;BME280_temperature;BME280_humidity;BME280_pressure;Samples;Min_cycle;Max_cycle;Signal;HPM_P1;HPM_P2
2023/09/08 00:04:24;;;;;;;6.37;5.83;;;19.70;99.90;;;;;;10341964;23;20324;-77
2023/09/08 00:09:26;;;;;;;6.27;5.77;;;19.60;99.90;;;;;;10248723;29;20296;-78
2023/09/08 00:14:30;;;;;;;7.13;6.53;;;19.60;99.90;;;;;;10229426;28;20217;-78
2023/09/08 00:19:32;;;;;;;6.30;5.73;;;19.60;99.90;;;;;;10316335;28;20224;-78
2023/09/08 00:24:34;;;;;;;9.63;6.63;;;19.60;99.90;;;;;;10248764;28;20324;-78
2023/09/08 00:29:38;;;;;;;7.13;6.63;;;19.50;99.90;;;;;;10316007;28;20198;-78
2023/09/08 00:34:41;;;;;;;8.23;7.17;;;19.50;99.90;;;;;;10315648;28;20279;-79
2023/09/08 00:39:43;;;;;;;6.90;6.40;;;19.50;99.90;;;;;;10315094;28;20228;-78
2023/09/08 00:44:47;;;;;;;7.03;6.43;;;19.50;99.90;;;;;;10314806;28;20224;-78
2023/09/08 00:49:51;;;;;;;7.20;6.70;;;19.50;99.90;;;;;;10248770;28;20248;-78
2023/09/08 00:54:53;;;;;;;7.10;6.40;;;19.40;99.90;;;;;;10248319;28;20217;-78
2023/09/08 00:59:57;;;;;;;6.60;6.10;;;19.40;99.90;;;;;;10312041;28;20232;-78
2023/09/08 01:05:00;;;;;;;7.70;6.93;;;19.40;99.90;;;;;;10243918;28;20225;-78
2023/09/08 01:10:05;;;;;;;7.23;6.50;;;19.40;99.90;;;;;;10316086;28;20298;-78
2023/09/08 01:15:09;;;;;;;7.40;6.80;;;19.30;99.90;;;;;;10249849;28;20229;-78
2023/09/08 01:20:21;;;;;;;7.93;7.23;;;19.30;99.90;;;;;;10256121;29;20217;-78
2023/09/08 01:25:26;;;;;;;7.63;7.03;;;19.30;99.90;;;;;;10321861;28;20785;-78
2023/09/08 01:30:32;;;;;;;7.50;7.00;;;19.30;99.90;;;;;;10255189;28;20212;-78
2023/09/08 01:35:34;;;;;;;8.40;6.97;;;19.20;99.90;;;;;;10243490;28;20220;-78
2023/09/08 01:40:38;;;;;;;6.83;6.10;;;19.20;99.90;;;;;;10246851;29;20240;-78
2023/09/08 01:45:40;;;;;;;7.47;6.77;;;19.10;99.90;;;;;;10312751;28;20229;-78
2023/09/08 01:50:42;;;;;;;7.43;6.73;;;19.10;99.90;;;;;;10246154;28;20259;-78
2023/09/08 01:55:46;;;;;;;7.60;7.00;;;19.10;99.90;;;;;;10312352;28;20694;-78
2023/09/08 02:00:50;;;;;;;7.63;6.97;;;19.00;99.90;;;;;;10312006;28;20225;-78
2023/09/08 02:05:53;;;;;;;8.30;7.47;;;19.00;99.90;;;;;;10245560;28;20225;-78
2023/09/08 02:10:57;;;;;;;7.70;7.10;;;19.00;99.90;;;;;;10311238;28;20288;-78
2023/09/08 02:15:59;;;;;;;7.20;6.70;;;18.90;99.90;;;;;;10246497;28;20229;-78
2023/09/08 02:21:01;;;;;;;7.00;6.50;;;18.90;99.90;;;;;;10319129;28;20216;-77
2023/09/08 02:26:04;;;;;;;7.07;6.47;;;18.90;99.90;;;;;;10319824;28;20784;-78
2023/09/08 02:31:07;;;;;;;9.63;7.10;;;18.90;99.90;;;;;;10319341;28;20576;-77
2023/09/08 02:36:09;;;;;;;8.10;7.30;;;18.80;99.90;;;;;;10318942;28;20245;-77
2023/09/08 02:41:15;;;;;;;7.60;7.03;;;18.80;99.90;;;;;;10317656;28;20782;-78
2023/09/08 02:46:17;;;;;;;7.63;7.03;;;18.80;99.90;;;;;;10251831;28;20698;-78
2023/09/08 02:51:20;;;;;;;7.80;7.20;;;18.80;99.90;;;;;;10317342;28;20202;-78
2023/09/08 02:56:23;;;;;;;7.87;7.27;;;18.70;99.90;;;;;;10317384;28;20226;-78
2023/09/08 03:01:25;;;;;;;7.80;7.07;;;18.70;99.90;;;;;;10317194;28;20221;-77
2023/09/08 03:06:27;;;;;;;9.30;7.43;;;18.70;99.90;;;;;;10317484;28;20233;-78
2023/09/08 03:11:32;;;;;;;8.30;7.50;;;18.70;99.90;;;;;;10315923;28;20205;-78
2023/09/08 03:16:34;;;;;;;8.57;7.87;;;18.60;99.90;;;;;;10317304;28;20240;-78
2023/09/08 03:21:36;;;;;;;8.23;7.53;;;18.60;99.90;;;;;;10256525;28;20232;-78
2023/09/08 03:26:41;;;;;;;8.67;7.97;;;18.60;99.90;;;;;;10322110;28;20224;-78
2023/09/08 03:31:43;;;;;;;10.27;8.00;;;18.60;99.90;;;;;;10316416;28;20203;-78
2023/09/08 03:36:45;;;;;;;8.20;7.53;;;18.50;99.90;;;;;;10315979;28;20241;-78
2023/09/08 03:41:49;;;;;;;8.13;7.53;;;18.50;99.90;;;;;;10315785;28;20563;-78
2023/09/08 03:46:51;;;;;;;8.00;7.20;;;18.50;99.90;;;;;;10315892;28;20728;-77
2023/09/08 03:51:54;;;;;;;7.90;7.20;;;18.50;99.90;;;;;;10249820;28;20423;-78
2023/09/08 03:56:57;;;;;;;8.20;7.50;;;18.50;99.90;;;;;;10249204;28;20221;-78
2023/09/08 04:02:01;;;;;;;7.57;6.87;;;18.40;99.90;;;;;;10314570;28;20240;-78
2023/09/08 04:07:03;;;;;;;8.03;7.43;;;18.40;99.90;;;;;;10312285;28;20291;-78
2023/09/08 04:12:09;;;;;;;7.50;6.90;;;18.40;99.90;;;;;;10314330;28;20204;-78
2023/09/08 04:17:11;;;;;;;8.30;7.50;;;18.40;99.90;;;;;;10309249;28;20229;-77
2023/09/08 04:22:13;;;;;;;9.57;7.73;;;18.40;99.90;;;;;;10313421;28;20256;-78
2023/09/08 04:27:16;;;;;;;8.27;7.57;;;18.40;99.90;;;;;;10297008;28;20806;-78
2023/09/08 04:32:19;;;;;;;8.23;7.43;;;18.40;99.90;;;;;;10314776;28;20204;-78
2023/09/08 04:37:21;;;;;;;8.23;7.50;;;18.30;99.90;;;;;;10315358;28;20218;-78
2023/09/08 04:42:25;;;;;;;9.27;8.20;;;18.30;99.90;;;;;;10314225;28;20252;-78
2023/09/08 04:47:27;;;;;;;8.40;7.70;;;18.30;99.90;;;;;;10315050;28;20279;-78
2023/09/08 04:52:30;;;;;;;8.00;7.30;;;18.30;99.90;;;;;;10314533;28;20233;-78
2023/09/08 04:57:33;;;;;;;7.33;6.73;;;18.20;99.90;;;;;;10311290;28;20229;-78
2023/09/08 05:02:36;;;;;;;17.53;7.23;;;18.20;99.90;;;;;;10309339;28;20232;-78
2023/09/08 05:07:39;;;;;;;8.63;7.83;;;18.20;99.90;;;;;;10311166;28;20294;-78
2023/09/08 05:12:43;;;;;;;7.70;7.10;;;18.10;99.90;;;;;;10246786;28;20194;-78
2023/09/08 05:17:45;;;;;;;7.90;7.30;;;18.10;99.90;;;;;;10248056;28;20259;-78
2023/09/08 05:22:47;;;;;;;7.67;7.03;;;18.10;99.90;;;;;;10314087;28;20722;-78
2023/09/08 05:27:51;;;;;;;8.70;7.90;;;18.10;99.90;;;;;;10309270;28;20222;-78
2023/09/08 05:32:53;;;;;;;8.53;7.30;;;18.10;99.90;;;;;;10286212;28;20240;-78
2023/09/08 05:37:55;;;;;;;8.10;7.40;;;18.10;99.90;;;;;;10314768;28;20221;-78
2023/09/08 05:42:59;;;;;;;8.60;7.83;;;18.10;99.90;;;;;;10312170;28;20226;-78
2023/09/08 05:48:02;;;;;;;8.70;8.00;;;18.10;99.90;;;;;;10311128;28;20225;-78
2023/09/08 05:53:05;;;;;;;7.67;6.97;;;18.10;99.90;;;;;;10312918;28;20514;-77
2023/09/08 05:58:09;;;;;;;9.10;7.33;;;18.20;99.90;;;;;;10312088;28;20240;-78
2023/09/08 06:03:11;;;;;;;8.97;8.20;;;18.20;99.90;;;;;;10306450;28;20664;-78
2023/09/08 06:08:13;;;;;;;9.20;7.43;;;18.30;99.90;;;;;;10299506;28;20244;-78
2023/09/08 06:13:22;;;;;;;12.23;7.63;;;18.30;99.90;;;;;;10311583;28;20559;-78
2023/09/08 06:18:24;;;;;;;9.77;8.40;;;18.40;99.90;;;;;;10329581;28;20205;-78
2023/09/08 06:23:26;;;;;;;9.47;8.17;;;18.40;99.90;;;;;;10311931;28;20228;-77
2023/09/08 06:28:30;;;;;;;8.87;8.10;;;18.50;99.90;;;;;;10312138;28;20672;-78
2023/09/08 06:33:33;;;;;;;9.57;8.77;;;18.50;99.90;;;;;;10311685;28;20675;-78
2023/09/08 06:38:37;;;;;;;8.90;8.20;;;18.50;99.90;;;;;;10313017;28;20689;-77
2023/09/08 06:43:42;;;;;;;11.43;10.03;;;18.60;99.90;;;;;;10312185;28;20913;-78
2023/09/08 06:48:50;;;;;;;12.10;10.80;;;18.70;99.90;;;;;;10313339;28;20201;-77
2023/09/08 06:53:56;;;;;;;9.97;9.07;;;18.70;99.90;;;;;;10246808;28;20709;-77
2023/09/08 06:59:00;;;;;;;10.53;9.73;;;18.80;99.90;;;;;;10313363;28;20271;-77
2023/09/08 07:04:04;;;;;;;10.70;9.70;;;18.90;99.90;;;;;;10314831;28;20228;-77
2023/09/08 07:09:08;;;;;;;10.57;9.67;;;19.00;99.90;;;;;;10308661;28;20647;-78
2023/09/08 07:14:12;;;;;;;10.80;9.70;;;19.00;99.90;;;;;;10319199;28;20217;-77
2023/09/08 07:19:14;;;;;;;12.13;9.73;;;19.10;99.90;;;;;;10254447;28;20209;-78
2023/09/08 07:24:16;;;;;;;10.27;9.37;;;19.20;99.90;;;;;;10319799;28;20312;-77
2023/09/08 07:29:20;;;;;;;10.27;9.37;;;19.30;99.90;;;;;;10321149;28;20216;-77
2023/09/08 07:34:22;;;;;;;9.63;8.70;;;19.40;99.90;;;;;;10320844;28;20316;-78
2023/09/08 07:39:25;;;;;;;10.43;9.53;;;19.50;99.90;;;;;;10321178;28;20297;-78
2023/09/08 07:44:28;;;;;;;11.70;9.60;;;19.60;99.90;;;;;;10304667;28;20274;-78
2023/09/08 07:49:31;;;;;;;9.97;9.07;;;19.60;99.90;;;;;;10319009;28;20678;-78
2023/09/08 07:54:33;;;;;;;9.47;8.57;;;19.70;99.90;;;;;;10253612;28;20218;-78
2023/09/08 07:59:37;;;;;;;11.90;10.27;;;19.80;99.90;;;;;;10259420;28;20232;-77
2023/09/08 08:04:39;;;;;;;10.33;9.43;;;19.90;99.90;;;;;;10260618;28;20225;-78
2023/09/08 08:09:41;;;;;;;10.17;9.37;;;20.10;99.90;;;;;;10317974;28;20197;-78
2023/09/08 08:14:44;;;;;;;9.23;8.40;;;20.20;99.90;;;;;;10252417;28;20244;-78
2023/09/08 08:19:47;;;;;;;9.60;8.80;;;20.30;99.90;;;;;;10252516;28;20642;-78
2023/09/08 08:24:50;;;;;;;11.70;9.30;;;20.40;99.90;;;;;;10318353;28;20232;-78
2023/09/08 08:29:53;;;;;;;11.50;10.57;;;20.50;99.90;;;;;;10318899;28;20572;-79
2023/09/08 08:34:56;;;;;;;10.73;8.80;;;20.60;99.90;;;;;;10261471;28;20224;-77
2023/09/08 08:39:58;;;;;;;8.90;8.10;;;20.70;99.90;;;;;;10250632;29;20204;-78
2023/09/08 08:45:03;;;;;;;9.60;8.80;;;20.80;99.90;;;;;;10249006;28;20225;-78
2023/09/08 08:50:10;;;;;;;8.90;8.20;;;20.90;99.90;;;;;;10252580;28;20197;-78
2023/09/08 08:55:14;;;;;;;9.97;9.10;;;21.00;99.90;;;;;;10253328;28;20232;-78
2023/09/08 09:00:18;;;;;;;9.40;8.63;;;21.20;99.90;;;;;;10318213;28;20635;-78
2023/09/08 09:05:21;;;;;;;10.37;9.40;;;21.30;99.90;;;;;;10253584;28;20252;-78
2023/09/08 09:10:23;;;;;;;9.27;8.33;;;21.30;99.90;;;;;;10253096;29;20276;-78
2023/09/08 09:15:33;;;;;;;8.87;7.97;;;21.40;99.90;;;;;;10254609;28;20224;-79
2023/09/08 09:20:35;;;;;;;9.77;8.93;;;21.50;99.90;;;;;;10255580;28;20228;-79
2023/09/08 09:25:38;;;;;;;10.40;9.40;;;21.60;99.90;;;;;;10267853;28;20294;-78
2023/09/08 09:30:52;;;;;;;9.83;9.03;;;21.70;99.90;;;;;;10262774;28;20197;-78
2023/09/08 09:35:55;;;;;;;11.00;8.10;;;21.80;99.90;;;;;;10258955;28;20221;-79
2023/09/08 09:40:58;;;;;;;10.97;9.50;;;22.00;99.90;;;;;;10253135;28;20686;-79
2023/09/08 09:46:03;;;;;;;11.50;9.57;;;22.10;99.90;;;;;;10243567;28;20232;-78
2023/09/08 09:51:18;;;;;;;12.50;10.00;;;22.40;99.90;;;;;;10246635;28;20194;-78
2023/09/08 09:56:24;;;;;;;9.20;8.50;;;22.80;99.90;;;;;;10249524;28;20303;-78
2023/09/08 10:01:29;;;;;;;11.63;8.27;;;23.20;99.90;;;;;;10239213;28;20224;-79
2023/09/08 10:06:32;;;;;;;9.83;8.60;;;23.70;99.90;;;;;;10287621;28;20233;-78
2023/09/08 10:11:39;;;;;;;8.50;7.80;;;23.90;99.90;;;;;;10248577;29;20186;-80
2023/09/08 10:16:49;;;;;;;8.57;7.83;;;23.80;99.90;;;;;;10316460;28;20228;-79
2023/09/08 10:21:55;;;;;;;8.93;8.00;;;23.80;99.90;;;;;;10252104;28;20265;-79
2023/09/08 10:27:03;;;;;;;8.30;7.67;;;23.80;99.90;;;;;;10256434;28;20229;-78
2023/09/08 10:32:08;;;;;;;7.80;7.10;;;23.70;99.90;;;;;;10256397;29;20193;-79
2023/09/08 10:37:21;;;;;;;8.17;7.50;;;23.70;99.90;;;;;;10255042;28;20595;-78
2023/09/08 10:42:27;;;;;;;8.13;7.53;;;23.60;99.90;;;;;;10260538;28;20237;-79
2023/09/08 10:47:40;;;;;;;8.63;7.83;;;23.60;99.90;;;;;;10262544;28;20225;-79
2023/09/08 10:52:42;;;;;;;9.70;7.57;;;23.60;99.90;;;;;;10260322;28;20223;-78
2023/09/08 10:57:46;;;;;;;8.27;7.40;;;23.60;99.90;;;;;;10258910;28;20586;-79
2023/09/08 11:02:51;;;;;;;8.40;7.70;;;23.60;99.90;;;;;;10260724;28;20221;-79
2023/09/08 11:07:53;;;;;;;8.23;7.43;;;23.50;99.90;;;;;;10325595;28;20564;-78
2023/09/08 11:12:55;;;;;;;8.73;8.03;;;23.50;99.90;;;;;;10253162;28;20722;-78
2023/09/08 11:18:06;;;;;;;8.10;7.40;;;23.50;99.90;;;;;;10248343;28;20229;-79
2023/09/08 11:23:08;;;;;;;7.73;6.93;;;23.50;99.90;;;;;;10257059;28;20251;-79
2023/09/08 11:28:11;;;;;;;8.57;7.87;;;23.40;99.90;;;;;;10260504;28;20225;-79
2023/09/08 11:33:17;;;;;;;6.87;6.37;;;23.50;99.90;;;;;;10259675;29;20193;-78
2023/09/08 11:38:24;;;;;;;8.97;8.17;;;23.50;99.90;;;;;;10258215;28;20288;-79
2023/09/08 11:43:27;;;;;;;8.80;8.10;;;23.60;99.90;;;;;;10256684;28;20279;-78
2023/09/08 11:48:32;;;;;;;8.03;7.40;;;23.50;99.90;;;;;;10254844;28;20221;-79
2023/09/08 11:53:34;;;;;;;9.33;8.30;;;23.50;99.90;;;;;;10253982;28;20647;-79
2023/09/08 11:58:37;;;;;;;12.90;8.30;;;23.50;99.90;;;;;;10259522;28;20205;-79
2023/09/08 12:08:51;;;;;;;8.50;7.80;;;23.60;99.90;;;;;;10142240;28;20207;-82
2023/09/08 12:14:01;;;;;;;9.13;8.40;;;23.60;99.90;;;;;;10165556;28;20199;-82
2023/09/08 12:19:03;;;;;;;8.97;8.17;;;23.70;99.90;;;;;;10196891;28;20245;-82
2023/09/08 12:24:12;;;;;;;13.33;8.40;;;23.80;99.90;;;;;;10196389;28;20231;-82
2023/09/08 12:29:14;;;;;;;9.13;8.20;;;23.90;99.90;;;;;;10241912;28;20209;-82
2023/09/08 12:34:17;;;;;;;8.97;8.17;;;24.00;99.90;;;;;;10191161;28;20261;-82
2023/09/08 12:39:20;;;;;;;8.90;8.10;;;24.00;99.90;;;;;;10196937;29;20195;-81
2023/09/08 12:44:22;;;;;;;10.17;9.27;;;24.00;99.90;;;;;;10185849;29;20241;-82
2023/09/08 12:49:24;;;;;;;8.37;7.67;;;24.10;99.90;;;;;;10176612;29;20205;-82
2023/09/08 12:54:28;;;;;;;8.80;7.90;;;24.00;99.90;;;;;;10176306;28;20222;-82
2023/09/08 12:59:30;;;;;;;8.03;7.33;;;23.90;99.90;;;;;;10176421;29;20229;-82
2023/09/08 13:04:32;;;;;;;7.60;7.00;;;23.80;99.90;;;;;;10179689;29;20237;-82
2023/09/08 13:09:35;;;;;;;7.73;7.07;;;23.80;99.90;;;;;;10242877;28;20670;-82
2023/09/08 13:14:37;;;;;;;8.77;7.87;;;23.80;99.90;;;;;;10179745;28;20222;-82
2023/09/08 13:19:41;;;;;;;8.40;7.77;;;23.90;99.90;;;;;;10176894;28;20210;-82
2023/09/08 13:24:44;;;;;;;8.70;7.83;;;23.90;99.90;;;;;;10175436;29;20280;-82
2023/09/08 13:29:46;;;;;;;7.43;6.73;;;23.90;99.90;;;;;;10175009;28;20743;-82
2023/09/08 13:34:51;;;;;;;8.73;7.93;;;23.90;99.90;;;;;;10174217;28;20211;-82
2023/09/08 13:39:55;;;;;;;8.03;7.23;;;24.00;99.90;;;;;;10175267;28;20203;-82
2023/09/08 13:44:57;;;;;;;9.83;8.50;;;24.20;99.90;;;;;;10240672;28;20670;-80
2023/09/08 13:49:59;;;;;;;8.23;7.53;;;24.30;99.90;;;;;;10235381;28;20206;-81
2023/09/08 13:55:03;;;;;;;8.07;7.47;;;24.50;99.10;;;;;;10170514;28;20446;-82
2023/09/08 14:00:08;;;;;;;7.57;6.97;;;24.60;98.90;;;;;;10171373;29;20214;-81
2023/09/08 14:05:12;;;;;;;7.30;6.70;;;24.60;99.30;;;;;;10168248;29;20234;-80
2023/09/08 14:10:16;;;;;;;7.67;6.97;;;24.60;98.20;;;;;;10163906;28;20199;-81
2023/09/08 14:15:18;;;;;;;7.27;6.63;;;24.60;98.90;;;;;;10177024;28;20219;-81
2023/09/08 14:20:20;;;;;;;7.10;6.50;;;24.60;99.30;;;;;;10176964;28;20206;-81
2023/09/08 14:25:24;;;;;;;8.23;6.23;;;24.70;97.90;;;;;;10179508;28;20230;-82
2023/09/08 14:30:26;;;;;;;9.50;7.10;;;24.90;97.50;;;;;;10179420;28;20190;-82
2023/09/08 14:35:28;;;;;;;7.60;6.90;;;25.10;97.60;;;;;;10243253;28;20246;-82
2023/09/08 14:40:31;;;;;;;7.50;6.87;;;25.10;97.90;;;;;;10166727;28;20476;-81
2023/09/08 14:45:33;;;;;;;7.13;6.53;;;25.10;98.40;;;;;;10179387;29;20250;-82
2023/09/08 14:50:36;;;;;;;7.37;6.83;;;25.00;97.80;;;;;;10174367;29;20294;-81
2023/09/08 14:55:39;;;;;;;7.23;6.63;;;25.30;98.00;;;;;;10240444;28;20214;-82
2023/09/08 15:00:41;;;;;;;5.93;5.53;;;25.60;96.50;;;;;;10179283;29;20203;-82
2023/09/08 15:05:44;;;;;;;6.43;5.83;;;25.60;97.40;;;;;;10180161;28;20229;-82
2023/09/08 15:10:47;;;;;;;6.80;6.23;;;25.40;97.60;;;;;;10185127;28;20206;-81
2023/09/08 15:15:49;;;;;;;7.30;6.70;;;25.30;97.60;;;;;;10203654;28;20218;-81
2023/09/08 15:20:52;;;;;;;6.53;5.97;;;25.10;98.10;;;;;;10183528;29;20203;-81
2023/09/08 15:25:57;;;;;;;6.50;6.00;;;24.90;98.70;;;;;;10242328;28;20708;-82
2023/09/08 15:30:59;;;;;;;8.17;7.47;;;24.80;98.40;;;;;;10178449;29;20759;-81
2023/09/08 15:36:01;;;;;;;6.90;6.40;;;24.80;98.40;;;;;;10181392;29;20246;-81
2023/09/08 15:41:18;;;;;;;6.73;6.13;;;24.70;98.80;;;;;;10188874;29;20206;-82
2023/09/08 15:46:20;;;;;;;6.80;5.80;;;24.50;99.50;;;;;;10184689;29;20250;-81
2023/09/08 15:51:22;;;;;;;7.20;6.60;;;24.50;99.30;;;;;;10179187;29;20202;-81
2023/09/08 15:56:26;;;;;;;7.47;6.77;;;24.30;99.90;;;;;;10177955;29;20219;-81
2023/09/08 16:01:28;;;;;;;6.67;6.17;;;24.30;99.90;;;;;;10176821;29;20198;-82
2023/09/08 16:06:30;;;;;;;6.97;6.37;;;24.30;99.60;;;;;;10178167;28;20243;-82
2023/09/08 16:11:33;;;;;;;7.10;6.60;;;24.30;99.50;;;;;;10241530;28;20217;-82
2023/09/08 16:16:36;;;;;;;6.60;6.10;;;24.30;99.90;;;;;;10165398;29;20321;-81
2023/09/08 16:21:38;;;;;;;7.00;6.50;;;24.30;99.40;;;;;;10150497;28;20214;-82
2023/09/08 16:26:42;;;;;;;7.00;6.40;;;24.10;99.60;;;;;;10176319;28;20611;-82
2023/09/08 16:31:44;;;;;;;6.97;6.47;;;24.20;99.10;;;;;;10176781;28;20557;-81
2023/09/08 16:36:46;;;;;;;7.33;6.80;;;24.20;99.40;;;;;;10177418;29;20219;-81
2023/09/08 16:41:49;;;;;;;7.33;6.73;;;24.20;99.90;;;;;;10176374;29;20256;-82
2023/09/08 16:46:51;;;;;;;7.63;7.03;;;24.20;99.90;;;;;;10185827;28;20598;-82
2023/09/08 16:51:56;;;;;;;6.33;5.83;;;24.10;99.90;;;;;;10176160;29;20225;-82
2023/09/08 16:57:00;;;;;;;6.23;5.83;;;24.10;99.90;;;;;;10175715;28;20246;-82
2023/09/08 17:02:02;;;;;;;7.23;6.63;;;24.10;99.90;;;;;;10175719;28;20217;-82
2023/09/08 17:07:04;;;;;;;6.40;5.90;;;24.10;99.90;;;;;;10176091;29;20301;-82
2023/09/08 17:12:09;;;;;;;7.20;6.60;;;24.20;99.90;;;;;;10248265;28;20664;-82
2023/09/08 17:17:11;;;;;;;8.00;7.40;;;24.20;99.80;;;;;;10203724;28;20227;-82
2023/09/08 17:22:13;;;;;;;7.40;6.80;;;24.30;99.90;;;;;;10178342;29;20222;-82
2023/09/08 17:27:17;;;;;;;7.07;6.57;;;24.30;99.90;;;;;;10175152;29;20226;-82
2023/09/08 17:32:19;;;;;;;7.23;6.60;;;24.30;99.90;;;;;;10175149;29;20241;-81
2023/09/08 17:37:22;;;;;;;8.00;7.30;;;24.20;99.90;;;;;;10182137;28;20254;-82
2023/09/08 17:42:25;;;;;;;8.27;7.20;;;24.20;99.90;;;;;;10175577;28;20218;-81
2023/09/08 17:47:27;;;;;;;7.57;6.97;;;24.10;99.90;;;;;;10184577;28;20226;-82
2023/09/08 17:52:29;;;;;;;6.47;5.97;;;23.90;99.90;;;;;;10188269;29;20432;-81
2023/09/08 17:57:33;;;;;;;7.50;6.90;;;23.80;99.90;;;;;;10181366;29;20215;-82
2023/09/08 18:02:35;;;;;;;7.47;6.87;;;23.60;99.90;;;;;;10175587;29;20237;-82
2023/09/08 18:07:39;;;;;;;6.33;5.63;;;23.60;99.90;;;;;;10271788;23;20249;-78
2023/09/08 18:12:43;;;;;;;9.80;9.10;;;23.50;99.90;;;;;;10288191;28;20196;-78
2023/09/08 18:17:47;;;;;;;8.17;7.40;;;23.40;99.90;;;;;;10271252;28;20283;-78
2023/09/08 18:22:52;;;;;;;10.20;9.10;;;23.40;99.90;;;;;;10247213;28;20278;-79
2023/09/08 18:27:55;;;;;;;9.87;8.77;;;23.20;99.90;;;;;;10248274;28;20308;-78
2023/09/08 18:32:57;;;;;;;7.40;6.77;;;23.20;99.90;;;;;;10313084;28;20671;-77
2023/09/08 18:37:59;;;;;;;10.63;7.10;;;23.10;99.90;;;;;;10247200;28;20221;-78
2023/09/08 18:43:03;;;;;;;6.40;5.90;;;23.10;99.90;;;;;;10246705;28;20225;-78
2023/09/08 18:48:06;;;;;;;7.30;6.60;;;23.00;99.90;;;;;;10257094;28;20247;-78
2023/09/08 18:53:08;;;;;;;7.43;6.70;;;23.00;99.90;;;;;;10246538;28;20655;-78
2023/09/08 18:58:13;;;;;;;8.20;7.60;;;22.90;99.90;;;;;;10246100;28;20226;-78
2023/09/08 19:03:16;;;;;;;8.00;7.20;;;22.90;99.90;;;;;;10251892;28;20231;-78
2023/09/08 19:08:18;;;;;;;7.83;7.13;;;22.90;99.90;;;;;;10252741;28;20234;-78
2023/09/08 19:13:22;;;;;;;7.70;6.90;;;22.80;99.90;;;;;;10252676;28;20198;-78
2023/09/08 19:18:24;;;;;;;7.80;7.10;;;22.80;99.90;;;;;;10255596;28;20288;-78
2023/09/08 19:23:26;;;;;;;11.23;7.67;;;22.80;99.90;;;;;;10252315;28;20229;-78
2023/09/08 19:28:29;;;;;;;8.80;8.10;;;22.70;99.90;;;;;;10252825;28;20248;-78
2023/09/08 19:33:34;;;;;;;8.77;7.97;;;22.70;99.90;;;;;;10252175;28;20194;-78
2023/09/08 19:38:36;;;;;;;8.03;7.33;;;22.70;99.90;;;;;;10301785;28;20278;-78
2023/09/08 19:43:40;;;;;;;9.07;8.23;;;22.60;99.90;;;;;;10250841;29;20229;-78
2023/09/08 19:48:42;;;;;;;8.63;7.93;;;22.60;99.90;;;;;;10259005;28;20229;-78
2023/09/08 19:53:44;;;;;;;8.80;7.93;;;22.60;99.90;;;;;;10251629;28;20194;-78
2023/09/08 19:58:50;;;;;;;9.17;8.00;;;22.60;99.90;;;;;;10251591;28;20618;-78
2023/09/08 20:03:52;;;;;;;8.23;7.53;;;22.50;99.90;;;;;;10250850;28;20710;-77
2023/09/08 20:08:54;;;;;;;8.60;7.80;;;22.50;99.90;;;;;;10317626;28;20253;-77
2023/09/08 20:13:58;;;;;;;7.83;7.23;;;22.40;99.90;;;;;;10315383;28;20198;-78
2023/09/08 20:19:00;;;;;;;8.80;8.00;;;22.40;99.90;;;;;;10260038;28;20217;-78
2023/09/08 20:24:04;;;;;;;9.20;8.30;;;22.40;99.90;;;;;;10249040;28;20244;-78
2023/09/08 20:29:08;;;;;;;8.37;7.67;;;22.30;99.90;;;;;;10249481;28;20275;-78
2023/09/08 20:34:15;;;;;;;9.40;8.10;;;22.30;99.90;;;;;;10248464;29;20201;-78
2023/09/08 20:39:18;;;;;;;9.50;8.67;;;22.20;99.90;;;;;;10249721;29;20205;-78
2023/09/08 20:44:21;;;;;;;9.20;8.30;;;22.20;99.90;;;;;;10249562;28;20213;-78
2023/09/08 20:49:24;;;;;;;9.97;8.97;;;22.20;99.90;;;;;;10258035;28;20296;-78
2023/09/08 20:54:26;;;;;;;11.10;8.43;;;22.10;99.90;;;;;;10247812;28;20532;-78
2023/09/08 20:59:30;;;;;;;10.37;9.47;;;22.10;99.90;;;;;;10248041;28;20682;-77
2023/09/08 21:04:32;;;;;;;9.50;8.60;;;22.00;99.90;;;;;;10247136;28;20221;-78
2023/09/08 21:09:34;;;;;;;8.90;8.10;;;22.00;99.90;;;;;;10248696;29;20212;-77
2023/09/08 21:14:38;;;;;;;9.00;8.30;;;21.90;99.90;;;;;;10252012;28;20221;-78
2023/09/08 21:19:40;;;;;;;9.80;9.00;;;21.90;99.90;;;;;;10256962;28;20200;-77
2023/09/08 21:24:42;;;;;;;10.47;9.47;;;21.80;99.90;;;;;;10246789;28;20255;-77
2023/09/08 21:29:46;;;;;;;9.87;8.87;;;21.80;99.90;;;;;;10247133;28;20642;-77
2023/09/08 21:34:48;;;;;;;9.90;8.53;;;21.70;99.90;;;;;;10247047;28;20586;-78
2023/09/08 21:39:50;;;;;;;10.20;9.30;;;21.70;99.90;;;;;;10246988;28;20208;-78
2023/09/08 21:44:53;;;;;;;11.40;10.40;;;21.70;99.90;;;;;;10318519;28;20279;-77
2023/09/08 21:49:55;;;;;;;9.13;8.20;;;21.70;99.90;;;;;;10254620;28;20197;-77
2023/09/08 21:54:58;;;;;;;9.03;8.23;;;21.60;99.90;;;;;;10247305;28;20312;-77
2023/09/08 22:00:01;;;;;;;11.20;10.23;;;21.60;99.90;;;;;;10246629;28;20205;-78
2023/09/08 22:05:04;;;;;;;11.07;8.60;;;21.60;99.90;;;;;;10312814;28;20217;-77
2023/09/08 22:10:06;;;;;;;11.23;10.13;;;21.50;99.90;;;;;;10246495;28;20555;-78
2023/09/08 22:15:11;;;;;;;11.10;10.10;;;21.50;99.90;;;;;;10254369;28;20655;-78
2023/09/08 22:20:13;;;;;;;10.80;9.90;;;21.50;99.90;;;;;;10251782;28;20198;-78
2023/09/08 22:25:15;;;;;;;10.50;9.60;;;21.50;99.90;;;;;;10245891;28;20682;-78
2023/09/08 22:30:20;;;;;;;11.97;10.90;;;21.40;99.90;;;;;;10245930;28;20554;-78
2023/09/08 22:35:22;;;;;;;11.27;10.10;;;21.40;99.90;;;;;;10249529;28;20213;-78
2023/09/08 22:40:24;;;;;;;12.10;10.93;;;21.40;99.90;;;;;;10252573;28;20666;-78
2023/09/08 22:45:28;;;;;;;10.87;9.90;;;21.30;99.90;;;;;;10263068;28;20603;-78
2023/09/08 22:50:30;;;;;;;10.57;9.77;;;21.30;99.90;;;;;;10255642;28;20228;-78
2023/09/08 22:55:32;;;;;;;11.23;10.23;;;21.30;99.90;;;;;;10319261;28;20236;-78
2023/09/08 23:00:35;;;;;;;11.60;10.40;;;21.30;99.90;;;;;;10252192;28;20682;-78
2023/09/08 23:05:37;;;;;;;11.83;10.87;;;21.20;99.90;;;;;;10251900;28;20232;-77
2023/09/08 23:10:40;;;;;;;11.50;10.50;;;21.20;99.90;;;;;;10251711;28;20210;-78
2023/09/08 23:15:43;;;;;;;11.47;10.47;;;21.20;99.90;;;;;;10266017;28;20315;-79
2023/09/08 23:20:45;;;;;;;11.40;10.40;;;21.10;99.90;;;;;;10260051;28;20202;-79
2023/09/08 23:25:49;;;;;;;10.40;9.50;;;21.10;99.90;;;;;;10257993;28;20639;-79
2023/09/08 23:30:53;;;;;;;11.00;9.93;;;21.10;99.90;;;;;;10257937;28;20194;-79
2023/09/08 23:35:55;;;;;;;10.50;9.77;;;21.00;99.90;;;;;;10257151;28;20520;-79
2023/09/08 23:40:57;;;;;;;11.50;10.50;;;20.90;99.90;;;;;;10252746;28;20209;-79
2023/09/08 23:46:00;;;;;;;10.90;9.57;;;20.90;99.90;;;;;;10254976;28;20229;-79
2023/09/08 23:51:03;;;;;;;11.23;10.20;;;20.90;99.90;;;;;;10252737;28;20252;-79
2023/09/08 23:56:05;;;;;;;11.43;10.20;;;20.90;99.90;;;;;;10257694;28;20222;-79
